sensor_id;sensor_type;location;lat;lon;timestamp;P1;durP1;ratioP1;P2;durP2;ratioP2
11042;SDS011;5574;48.786;10.120;2023-04-21T00:00:48;8.80;;;7.90;;
11042;SDS011;5574;48.786;10.120;2023-04-21T00:03:15;9.37;;;7.50;;
11042;SDS011;5574;48.786;10.120;2023-04-21T00:05:44;8.90;;;7.60;;
11042;SDS011;5574;48.786;10.120;2023-04-21T00:08:12;8.90;;;8.00;;
11042;SDS011;5574;48.786;10.120;2023-04-21T00:10:40;9.27;;;8.37;;
11042;SDS011;5574;48.786;10.120;2023-04-21T00:13:07;9.63;;;7.97;;
11042;SDS011;5574;48.786;10.120;2023-04-21T00:15:34;9.63;;;8.67;;
11042;SDS011;5574;48.786;10.120;2023-04-21T00:18:01;8.90;;;8.00;;
11042;SDS011;5574;48.786;10.120;2023-04-21T00:20:28;9.60;;;8.70;;
11042;SDS011;5574;48.786;10.120;2023-04-21T00:22:56;9.33;;;8.40;;
11042;SDS011;5574;48.786;10.120;2023-04-21T00:25:23;10.47;;;8.80;;
11042;SDS011;5574;48.786;10.120;2023-04-21T00:27:52;9.43;;;8.40;;
11042;SDS011;5574;48.786;10.120;2023-04-21T00:30:18;8.20;;;7.40;;
11042;SDS011;5574;48.786;10.120;2023-04-21T00:32:45;8.27;;;7.47;;
11042;SDS011;5574;48.786;10.120;2023-04-21T00:35:12;8.20;;;7.40;;
11042;SDS011;5574;48.786;10.120;2023-04-21T00:37:39;8.33;;;7.53;;
11042;SDS011;5574;48.786;10.120;2023-04-21T00:40:06;8.43;;;7.53;;
11042;SDS011;5574;48.786;10.120;2023-04-21T00:42:34;8.60;;;7.73;;
11042;SDS011;5574;48.786;10.120;2023-04-21T00:45:02;7.93;;;7.13;;
11042;SDS011;5574;48.786;10.120;2023-04-21T00:47:29;8.37;;;7.57;;
11042;SDS011;5574;48.786;10.120;2023-04-21T00:49:56;8.53;;;7.63;;
11042;SDS011;5574;48.786;10.120;2023-04-21T00:52:22;7.97;;;7.20;;
11042;SDS011;5574;48.786;10.120;2023-04-21T00:54:50;10.03;;;8.03;;
11042;SDS011;5574;48.786;10.120;2023-04-21T00:57:17;8.30;;;7.50;;
11042;SDS011;5574;48.786;10.120;2023-04-21T00:59:45;8.60;;;7.70;;
11042;SDS011;5574;48.786;10.120;2023-04-21T01:02:14;8.33;;;7.53;;
11042;SDS011;5574;48.786;10.120;2023-04-21T01:04:41;7.47;;;6.77;;
11042;SDS011;5574;48.786;10.120;2023-04-21T01:07:09;7.73;;;6.97;;
11042;SDS011;5574;48.786;10.120;2023-04-21T01:09:36;7.53;;;6.77;;
11042;SDS011;5574;48.786;10.120;2023-04-21T01:12:03;7.10;;;6.40;;
11042;SDS011;5574;48.786;10.120;2023-04-21T01:14:31;7.43;;;6.70;;
11042;SDS011;5574;48.786;10.120;2023-04-21T01:16:57;7.10;;;6.40;;
11042;SDS011;5574;48.786;10.120;2023-04-21T01:19:27;7.10;;;6.40;;
11042;SDS011;5574;48.786;10.120;2023-04-21T01:21:57;7.67;;;6.87;;
11042;SDS011;5574;48.786;10.120;2023-04-21T01:24:33;7.53;;;6.83;;
11042;SDS011;5574;48.786;10.120;2023-04-21T01:27:01;7.30;;;6.43;;
11042;SDS011;5574;48.786;10.120;2023-04-21T01:29:30;8.47;;;6.83;;
11042;SDS011;5574;48.786;10.120;2023-04-21T01:32:02;7.80;;;7.10;;
11042;SDS011;5574;48.786;10.120;2023-04-21T01:34:30;7.53;;;6.83;;
11042;SDS011;5574;48.786;10.120;2023-04-21T01:36:58;7.00;;;6.20;;
11042;SDS011;5574;48.786;10.120;2023-04-21T01:39:25;7.20;;;6.50;;
11042;SDS011;5574;48.786;10.120;2023-04-21T01:41:52;6.87;;;6.27;;
11042;SDS011;5574;48.786;10.120;2023-04-21T01:44:21;6.63;;;5.93;;
11042;SDS011;5574;48.786;10.120;2023-04-21T01:46:49;6.77;;;6.17;;
11042;SDS011;5574;48.786;10.120;2023-04-21T01:49:15;7.30;;;6.60;;
11042;SDS011;5574;48.786;10.120;2023-04-21T01:51:42;6.93;;;6.23;;
11042;SDS011;5574;48.786;10.120;2023-04-21T01:54:10;7.10;;;6.50;;
11042;SDS011;5574;48.786;10.120;2023-04-21T01:56:37;7.40;;;6.70;;
11042;SDS011;5574;48.786;10.120;2023-04-21T01:59:03;7.37;;;6.63;;
11042;SDS011;5574;48.786;10.120;2023-04-21T02:01:30;7.43;;;6.73;;
11042;SDS011;5574;48.786;10.120;2023-04-21T02:03:57;7.43;;;6.60;;
11042;SDS011;5574;48.786;10.120;2023-04-21T02:06:23;6.90;;;6.20;;
11042;SDS011;5574;48.786;10.120;2023-04-21T02:08:50;7.07;;;6.37;;
11042;SDS011;5574;48.786;10.120;2023-04-21T02:11:18;7.17;;;6.47;;
11042;SDS011;5574;48.786;10.120;2023-04-21T02:13:44;7.20;;;6.40;;
11042;SDS011;5574;48.786;10.120;2023-04-21T02:16:11;8.13;;;7.33;;
11042;SDS011;5574;48.786;10.120;2023-04-21T02:18:38;7.67;;;6.97;;
11042;SDS011;5574;48.786;10.120;2023-04-21T02:21:05;7.80;;;7.00;;
11042;SDS011;5574;48.786;10.120;2023-04-21T02:23:32;7.97;;;7.17;;
11042;SDS011;5574;48.786;10.120;2023-04-21T02:25:58;7.40;;;6.70;;
11042;SDS011;5574;48.786;10.120;2023-04-21T02:28:26;6.80;;;6.20;;
11042;SDS011;5574;48.786;10.120;2023-04-21T02:30:53;7.53;;;6.80;;
11042;SDS011;5574;48.786;10.120;2023-04-21T02:33:20;7.67;;;6.90;;
11042;SDS011;5574;48.786;10.120;2023-04-21T02:35:46;8.40;;;7.60;;
11042;SDS011;5574;48.786;10.120;2023-04-21T02:38:13;8.40;;;7.60;;
11042;SDS011;5574;48.786;10.120;2023-04-21T02:40:40;11.63;;;10.13;;
11042;SDS011;5574;48.786;10.120;2023-04-21T02:43:07;9.37;;;8.37;;
11042;SDS011;5574;48.786;10.120;2023-04-21T02:45:36;8.27;;;7.37;;
11042;SDS011;5574;48.786;10.120;2023-04-21T02:48:03;7.87;;;7.13;;
11042;SDS011;5574;48.786;10.120;2023-04-21T02:50:30;8.50;;;7.70;;
11042;SDS011;5574;48.786;10.120;2023-04-21T02:52:57;10.93;;;7.63;;
11042;SDS011;5574;48.786;10.120;2023-04-21T02:55:23;8.53;;;7.63;;
11042;SDS011;5574;48.786;10.120;2023-04-21T02:57:50;9.20;;;7.83;;
11042;SDS011;5574;48.786;10.120;2023-04-21T03:00:17;8.70;;;7.80;;
11042;SDS011;5574;48.786;10.120;2023-04-21T03:02:45;9.63;;;7.67;;
11042;SDS011;5574;48.786;10.120;2023-04-21T03:05:12;8.80;;;7.40;;
11042;SDS011;5574;48.786;10.120;2023-04-21T03:07:39;8.23;;;7.37;;
11042;SDS011;5574;48.786;10.120;2023-04-21T03:10:06;7.43;;;6.73;;
11042;SDS011;5574;48.786;10.120;2023-04-21T03:12:33;7.10;;;6.50;;
11042;SDS011;5574;48.786;10.120;2023-04-21T03:14:59;7.20;;;6.50;;
11042;SDS011;5574;48.786;10.120;2023-04-21T03:17:26;7.83;;;7.03;;
11042;SDS011;5574;48.786;10.120;2023-04-21T03:19:54;7.67;;;6.80;;
11042;SDS011;5574;48.786;10.120;2023-04-21T03:22:21;7.33;;;6.53;;
11042;SDS011;5574;48.786;10.120;2023-04-21T03:24:47;7.13;;;6.43;;
11042;SDS011;5574;48.786;10.120;2023-04-21T03:27:14;7.13;;;6.43;;
11042;SDS011;5574;48.786;10.120;2023-04-21T03:29:40;8.13;;;7.13;;
11042;SDS011;5574;48.786;10.120;2023-04-21T03:32:07;8.83;;;7.37;;
11042;SDS011;5574;48.786;10.120;2023-04-21T03:34:34;7.10;;;6.40;;
11042;SDS011;5574;48.786;10.120;2023-04-21T03:37:02;8.10;;;7.23;;
11042;SDS011;5574;48.786;10.120;2023-04-21T03:39:28;7.10;;;6.40;;
11042;SDS011;5574;48.786;10.120;2023-04-21T03:41:55;7.53;;;6.67;;
11042;SDS011;5574;48.786;10.120;2023-04-21T03:44:24;6.37;;;5.77;;
11042;SDS011;5574;48.786;10.120;2023-04-21T03:46:51;6.90;;;6.30;;
11042;SDS011;5574;48.786;10.120;2023-04-21T03:49:18;6.60;;;5.63;;
11042;SDS011;5574;48.786;10.120;2023-04-21T03:51:45;6.17;;;5.57;;
11042;SDS011;5574;48.786;10.120;2023-04-21T03:54:13;6.83;;;6.10;;
11042;SDS011;5574;48.786;10.120;2023-04-21T03:56:39;6.27;;;5.67;;
11042;SDS011;5574;48.786;10.120;2023-04-21T03:59:06;6.90;;;6.20;;
11042;SDS011;5574;48.786;10.120;2023-04-21T04:01:33;6.70;;;6.00;;
11042;SDS011;5574;48.786;10.120;2023-04-21T04:03:59;7.17;;;6.20;;
11042;SDS011;5574;48.786;10.120;2023-04-21T04:06:26;8.27;;;6.40;;
11042;SDS011;5574;48.786;10.120;2023-04-21T04:08:53;131.80;;;46.90;;
11042;SDS011;5574;48.786;10.120;2023-04-21T04:11:21;150.03;;;55.57;;
11042;SDS011;5574;48.786;10.120;2023-04-21T04:13:48;41.63;;;21.40;;
11042;SDS011;5574;48.786;10.120;2023-04-21T04:16:14;18.70;;;11.57;;
11042;SDS011;5574;48.786;10.120;2023-04-21T04:18:42;8.53;;;7.17;;
11042;SDS011;5574;48.786;10.120;2023-04-21T04:21:09;9.33;;;8.07;;
11042;SDS011;5574;48.786;10.120;2023-04-21T04:23:36;8.20;;;7.30;;
11042;SDS011;5574;48.786;10.120;2023-04-21T04:26:03;9.47;;;8.10;;
11042;SDS011;5574;48.786;10.120;2023-04-21T04:28:31;9.53;;;7.90;;
11042;SDS011;5574;48.786;10.120;2023-04-21T04:30:58;12.77;;;8.57;;
11042;SDS011;5574;48.786;10.120;2023-04-21T04:33:27;15.90;;;10.10;;
11042;SDS011;5574;48.786;10.120;2023-04-21T04:35:53;12.67;;;9.20;;
11042;SDS011;5574;48.786;10.120;2023-04-21T04:38:20;10.23;;;7.83;;
11042;SDS011;5574;48.786;10.120;2023-04-21T04:40:51;10.10;;;7.67;;
11042;SDS011;5574;48.786;10.120;2023-04-21T04:43:18;12.00;;;8.37;;
11042;SDS011;5574;48.786;10.120;2023-04-21T04:45:46;10.23;;;7.67;;
11042;SDS011;5574;48.786;10.120;2023-04-21T04:48:13;7.50;;;6.70;;
11042;SDS011;5574;48.786;10.120;2023-04-21T04:50:40;7.40;;;6.67;;
11042;SDS011;5574;48.786;10.120;2023-04-21T04:53:06;10.33;;;7.70;;
11042;SDS011;5574;48.786;10.120;2023-04-21T04:55:33;12.83;;;7.80;;
11042;SDS011;5574;48.786;10.120;2023-04-21T04:58:00;20.70;;;8.00;;
11042;SDS011;5574;48.786;10.120;2023-04-21T05:00:27;17.40;;;8.20;;
11042;SDS011;5574;48.786;10.120;2023-04-21T05:02:55;20.80;;;8.43;;
11042;SDS011;5574;48.786;10.120;2023-04-21T05:05:22;22.30;;;8.80;;
11042;SDS011;5574;48.786;10.120;2023-04-21T05:07:49;16.53;;;8.57;;
11042;SDS011;5574;48.786;10.120;2023-04-21T05:10:16;24.33;;;8.13;;
11042;SDS011;5574;48.786;10.120;2023-04-21T05:12:43;25.30;;;8.37;;
11042;SDS011;5574;48.786;10.120;2023-04-21T05:15:09;25.77;;;8.60;;
11042;SDS011;5574;48.786;10.120;2023-04-21T05:17:36;24.83;;;8.63;;
11042;SDS011;5574;48.786;10.120;2023-04-21T05:20:05;27.33;;;8.10;;
11042;SDS011;5574;48.786;10.120;2023-04-21T05:22:35;17.67;;;7.47;;
11042;SDS011;5574;48.786;10.120;2023-04-21T05:25:02;9.80;;;6.73;;
11042;SDS011;5574;48.786;10.120;2023-04-21T05:27:29;16.23;;;6.20;;
11042;SDS011;5574;48.786;10.120;2023-04-21T05:29:58;16.93;;;7.20;;
11042;SDS011;5574;48.786;10.120;2023-04-21T05:32:24;17.73;;;7.37;;
11042;SDS011;5574;48.786;10.120;2023-04-21T05:34:51;19.63;;;6.53;;
11042;SDS011;5574;48.786;10.120;2023-04-21T05:37:19;11.23;;;6.63;;
11042;SDS011;5574;48.786;10.120;2023-04-21T05:39:46;15.10;;;6.90;;
11042;SDS011;5574;48.786;10.120;2023-04-21T05:42:12;13.97;;;6.70;;
11042;SDS011;5574;48.786;10.120;2023-04-21T05:44:39;10.63;;;6.43;;
11042;SDS011;5574;48.786;10.120;2023-04-21T05:47:07;10.13;;;7.03;;
11042;SDS011;5574;48.786;10.120;2023-04-21T05:49:33;15.17;;;7.60;;
11042;SDS011;5574;48.786;10.120;2023-04-21T05:52:00;9.00;;;7.13;;
11042;SDS011;5574;48.786;10.120;2023-04-21T05:54:28;17.33;;;7.70;;
11042;SDS011;5574;48.786;10.120;2023-04-21T05:56:55;12.70;;;7.17;;
11042;SDS011;5574;48.786;10.120;2023-04-21T05:59:22;11.20;;;7.30;;
11042;SDS011;5574;48.786;10.120;2023-04-21T06:01:50;7.40;;;6.43;;
11042;SDS011;5574;48.786;10.120;2023-04-21T06:04:17;8.83;;;7.43;;
11042;SDS011;5574;48.786;10.120;2023-04-21T06:06:43;13.93;;;7.40;;
11042;SDS011;5574;48.786;10.120;2023-04-21T06:09:10;13.00;;;9.47;;
11042;SDS011;5574;48.786;10.120;2023-04-21T06:11:40;10.90;;;9.07;;
11042;SDS011;5574;48.786;10.120;2023-04-21T06:14:07;10.33;;;8.73;;
11042;SDS011;5574;48.786;10.120;2023-04-21T06:16:34;10.87;;;8.17;;
11042;SDS011;5574;48.786;10.120;2023-04-21T06:19:01;9.07;;;7.20;;
11042;SDS011;5574;48.786;10.120;2023-04-21T06:21:27;10.20;;;7.70;;
11042;SDS011;5574;48.786;10.120;2023-04-21T06:23:54;10.87;;;8.70;;
11042;SDS011;5574;48.786;10.120;2023-04-21T06:26:21;14.10;;;8.83;;
11042;SDS011;5574;48.786;10.120;2023-04-21T06:28:49;11.20;;;8.23;;
11042;SDS011;5574;48.786;10.120;2023-04-21T06:31:16;9.53;;;8.20;;
11042;SDS011;5574;48.786;10.120;2023-04-21T06:33:43;11.77;;;8.87;;
11042;SDS011;5574;48.786;10.120;2023-04-21T06:36:10;11.53;;;8.77;;
11042;SDS011;5574;48.786;10.120;2023-04-21T06:38:37;13.63;;;10.00;;
11042;SDS011;5574;48.786;10.120;2023-04-21T06:41:05;11.93;;;9.07;;
11042;SDS011;5574;48.786;10.120;2023-04-21T06:43:32;10.33;;;9.03;;
11042;SDS011;5574;48.786;10.120;2023-04-21T06:46:00;10.47;;;9.07;;
11042;SDS011;5574;48.786;10.120;2023-04-21T06:48:26;11.00;;;9.17;;
11042;SDS011;5574;48.786;10.120;2023-04-21T06:50:54;13.03;;;9.73;;
11042;SDS011;5574;48.786;10.120;2023-04-21T06:53:20;12.27;;;9.27;;
11042;SDS011;5574;48.786;10.120;2023-04-21T06:55:47;13.07;;;9.40;;
11042;SDS011;5574;48.786;10.120;2023-04-21T06:58:14;10.60;;;8.67;;
11042;SDS011;5574;48.786;10.120;2023-04-21T07:00:41;12.30;;;9.47;;
11042;SDS011;5574;48.786;10.120;2023-04-21T07:03:09;10.13;;;8.30;;
11042;SDS011;5574;48.786;10.120;2023-04-21T07:05:36;10.53;;;7.87;;
11042;SDS011;5574;48.786;10.120;2023-04-21T07:08:03;10.57;;;8.20;;
11042;SDS011;5574;48.786;10.120;2023-04-21T07:10:30;9.33;;;8.07;;
11042;SDS011;5574;48.786;10.120;2023-04-21T07:12:56;9.30;;;7.93;;
11042;SDS011;5574;48.786;10.120;2023-04-21T07:15:23;10.03;;;8.63;;
11042;SDS011;5574;48.786;10.120;2023-04-21T07:17:50;8.73;;;7.80;;
11042;SDS011;5574;48.786;10.120;2023-04-21T07:20:18;9.50;;;8.30;;
11042;SDS011;5574;48.786;10.120;2023-04-21T07:22:44;9.93;;;8.70;;
11042;SDS011;5574;48.786;10.120;2023-04-21T07:25:11;9.97;;;8.63;;
11042;SDS011;5574;48.786;10.120;2023-04-21T07:27:38;11.03;;;8.80;;
11042;SDS011;5574;48.786;10.120;2023-04-21T07:30:05;10.40;;;9.13;;
11042;SDS011;5574;48.786;10.120;2023-04-21T07:32:32;10.53;;;9.40;;
11042;SDS011;5574;48.786;10.120;2023-04-21T07:35:01;10.07;;;8.97;;
11042;SDS011;5574;48.786;10.120;2023-04-21T07:37:29;11.17;;;8.70;;
11042;SDS011;5574;48.786;10.120;2023-04-21T07:39:56;10.70;;;8.93;;
11042;SDS011;5574;48.786;10.120;2023-04-21T07:42:22;9.67;;;8.67;;
11042;SDS011;5574;48.786;10.120;2023-04-21T07:44:50;12.80;;;9.87;;
11042;SDS011;5574;48.786;10.120;2023-04-21T07:47:18;11.50;;;9.70;;
11042;SDS011;5574;48.786;10.120;2023-04-21T07:49:45;11.40;;;10.20;;
11042;SDS011;5574;48.786;10.120;2023-04-21T07:52:12;12.17;;;10.67;;
11042;SDS011;5574;48.786;10.120;2023-04-21T07:54:40;11.73;;;10.30;;
11042;SDS011;5574;48.786;10.120;2023-04-21T07:57:07;11.80;;;10.47;;
11042;SDS011;5574;48.786;10.120;2023-04-21T07:59:34;14.40;;;10.70;;
11042;SDS011;5574;48.786;10.120;2023-04-21T08:02:00;12.80;;;11.17;;
11042;SDS011;5574;48.786;10.120;2023-04-21T08:04:27;13.30;;;10.57;;
11042;SDS011;5574;48.786;10.120;2023-04-21T08:06:54;12.40;;;10.50;;
11042;SDS011;5574;48.786;10.120;2023-04-21T08:09:20;13.23;;;11.17;;
11042;SDS011;5574;48.786;10.120;2023-04-21T08:11:48;13.57;;;11.63;;
11042;SDS011;5574;48.786;10.120;2023-04-21T08:14:15;13.00;;;10.73;;
11042;SDS011;5574;48.786;10.120;2023-04-21T08:16:42;11.40;;;10.07;;
11042;SDS011;5574;48.786;10.120;2023-04-21T08:19:09;13.17;;;11.10;;
11042;SDS011;5574;48.786;10.120;2023-04-21T08:21:35;13.47;;;11.03;;
11042;SDS011;5574;48.786;10.120;2023-04-21T08:24:02;14.57;;;10.70;;
11042;SDS011;5574;48.786;10.120;2023-04-21T08:26:29;13.23;;;11.53;;
11042;SDS011;5574;48.786;10.120;2023-04-21T08:28:59;13.47;;;10.73;;
11042;SDS011;5574;48.786;10.120;2023-04-21T08:31:26;12.67;;;11.20;;
11042;SDS011;5574;48.786;10.120;2023-04-21T08:33:52;15.87;;;12.13;;
11042;SDS011;5574;48.786;10.120;2023-04-21T08:36:19;14.00;;;10.77;;
11042;SDS011;5574;48.786;10.120;2023-04-21T08:38:46;13.30;;;11.37;;
11042;SDS011;5574;48.786;10.120;2023-04-21T08:41:12;13.97;;;11.13;;
11042;SDS011;5574;48.786;10.120;2023-04-21T08:43:39;14.50;;;11.80;;
11042;SDS011;5574;48.786;10.120;2023-04-21T08:46:07;14.73;;;11.73;;
11042;SDS011;5574;48.786;10.120;2023-04-21T08:48:34;15.80;;;10.77;;
11042;SDS011;5574;48.786;10.120;2023-04-21T08:51:02;14.13;;;11.27;;
11042;SDS011;5574;48.786;10.120;2023-04-21T08:53:29;13.93;;;10.50;;
11042;SDS011;5574;48.786;10.120;2023-04-21T08:55:56;13.13;;;11.33;;
11042;SDS011;5574;48.786;10.120;2023-04-21T08:58:23;16.37;;;11.27;;
11042;SDS011;5574;48.786;10.120;2023-04-21T09:00:49;13.13;;;11.30;;
11042;SDS011;5574;48.786;10.120;2023-04-21T09:03:21;12.07;;;10.83;;
11042;SDS011;5574;48.786;10.120;2023-04-21T09:05:55;12.93;;;11.23;;
11042;SDS011;5574;48.786;10.120;2023-04-21T09:08:23;14.40;;;11.63;;
11042;SDS011;5574;48.786;10.120;2023-04-21T09:10:52;15.30;;;11.47;;
11042;SDS011;5574;48.786;10.120;2023-04-21T09:13:19;15.43;;;12.03;;
11042;SDS011;5574;48.786;10.120;2023-04-21T09:15:47;13.13;;;11.40;;
11042;SDS011;5574;48.786;10.120;2023-04-21T09:18:16;16.80;;;11.17;;
11042;SDS011;5574;48.786;10.120;2023-04-21T09:20:46;11.47;;;10.27;;
11042;SDS011;5574;48.786;10.120;2023-04-21T09:23:14;12.63;;;10.43;;
11042;SDS011;5574;48.786;10.120;2023-04-21T09:25:42;13.13;;;11.37;;
11042;SDS011;5574;48.786;10.120;2023-04-21T09:28:11;14.63;;;11.77;;
11042;SDS011;5574;48.786;10.120;2023-04-21T09:30:39;15.50;;;11.33;;
11042;SDS011;5574;48.786;10.120;2023-04-21T09:33:07;15.33;;;10.37;;
11042;SDS011;5574;48.786;10.120;2023-04-21T09:35:39;11.87;;;10.33;;
11042;SDS011;5574;48.786;10.120;2023-04-21T09:38:10;12.17;;;10.07;;
11042;SDS011;5574;48.786;10.120;2023-04-21T09:40:37;11.70;;;10.50;;
11042;SDS011;5574;48.786;10.120;2023-04-21T09:43:04;13.07;;;10.30;;
11042;SDS011;5574;48.786;10.120;2023-04-21T09:45:31;11.67;;;9.80;;
11042;SDS011;5574;48.786;10.120;2023-04-21T09:47:59;11.13;;;9.77;;
11042;SDS011;5574;48.786;10.120;2023-04-21T09:50:27;11.97;;;10.17;;
11042;SDS011;5574;48.786;10.120;2023-04-21T09:52:55;11.63;;;10.30;;
11042;SDS011;5574;48.786;10.120;2023-04-21T09:55:25;12.37;;;9.93;;
11042;SDS011;5574;48.786;10.120;2023-04-21T09:57:55;28.57;;;12.63;;
11042;SDS011;5574;48.786;10.120;2023-04-21T10:00:24;12.87;;;10.60;;
11042;SDS011;5574;48.786;10.120;2023-04-21T10:02:52;18.63;;;11.37;;
11042;SDS011;5574;48.786;10.120;2023-04-21T10:05:19;12.53;;;10.20;;
11042;SDS011;5574;48.786;10.120;2023-04-21T10:07:47;14.40;;;9.77;;
11042;SDS011;5574;48.786;10.120;2023-04-21T10:10:15;10.50;;;9.37;;
11042;SDS011;5574;48.786;10.120;2023-04-21T10:12:49;13.13;;;10.50;;
11042;SDS011;5574;48.786;10.120;2023-04-21T10:15:29;10.63;;;9.53;;
11042;SDS011;5574;48.786;10.120;2023-04-21T10:18:12;12.03;;;9.13;;
11042;SDS011;5574;48.786;10.120;2023-04-21T10:20:52;10.63;;;9.13;;
11042;SDS011;5574;48.786;10.120;2023-04-21T10:23:27;10.73;;;8.93;;
11042;SDS011;5574;48.786;10.120;2023-04-21T10:25:59;9.97;;;8.70;;
11042;SDS011;5574;48.786;10.120;2023-04-21T10:28:39;11.63;;;9.47;;
11042;SDS011;5574;48.786;10.120;2023-04-21T10:31:16;11.73;;;9.13;;
11042;SDS011;5574;48.786;10.120;2023-04-21T10:37:16;11.47;;;8.63;;
11042;SDS011;5574;48.786;10.120;2023-04-21T10:39:53;9.80;;;8.60;;
11042;SDS011;5574;48.786;10.120;2023-04-21T10:42:24;9.77;;;8.63;;
11042;SDS011;5574;48.786;10.120;2023-04-21T10:44:59;9.67;;;8.67;;
11042;SDS011;5574;48.786;10.120;2023-04-21T10:47:40;9.00;;;8.10;;
11042;SDS011;5574;48.786;10.120;2023-04-21T10:50:09;7.87;;;6.93;;
11042;SDS011;5574;48.786;10.120;2023-04-21T10:52:38;12.43;;;7.97;;
11042;SDS011;5574;48.786;10.120;2023-04-21T10:55:08;8.83;;;7.93;;
11042;SDS011;5574;48.786;10.120;2023-04-21T10:57:36;8.53;;;7.57;;
11042;SDS011;5574;48.786;10.120;2023-04-21T11:00:08;7.93;;;7.13;;
11042;SDS011;5574;48.786;10.120;2023-04-21T11:02:35;19.13;;;8.77;;
11042;SDS011;5574;48.786;10.120;2023-04-21T11:05:03;9.17;;;8.20;;
11042;SDS011;5574;48.786;10.120;2023-04-21T11:07:31;8.43;;;7.63;;
11042;SDS011;5574;48.786;10.120;2023-04-21T11:09:58;10.27;;;7.70;;
11042;SDS011;5574;48.786;10.120;2023-04-21T11:12:26;10.80;;;7.47;;
11042;SDS011;5574;48.786;10.120;2023-04-21T11:14:54;7.90;;;7.10;;
11042;SDS011;5574;48.786;10.120;2023-04-21T11:17:23;8.40;;;7.43;;
11042;SDS011;5574;48.786;10.120;2023-04-21T11:19:51;9.30;;;7.87;;
11042;SDS011;5574;48.786;10.120;2023-04-21T11:22:19;10.27;;;8.80;;
11042;SDS011;5574;48.786;10.120;2023-04-21T11:24:47;8.17;;;7.30;;
11042;SDS011;5574;48.786;10.120;2023-04-21T11:27:15;9.10;;;7.93;;
11042;SDS011;5574;48.786;10.120;2023-04-21T11:29:43;8.80;;;7.90;;
11042;SDS011;5574;48.786;10.120;2023-04-21T11:32:10;10.10;;;7.83;;
11042;SDS011;5574;48.786;10.120;2023-04-21T11:34:38;11.97;;;8.23;;
11042;SDS011;5574;48.786;10.120;2023-04-21T11:37:06;8.53;;;7.67;;
11042;SDS011;5574;48.786;10.120;2023-04-21T11:39:33;9.57;;;7.33;;
11042;SDS011;5574;48.786;10.120;2023-04-21T11:42:00;9.00;;;8.10;;
11042;SDS011;5574;48.786;10.120;2023-04-21T11:44:31;9.57;;;8.27;;
11042;SDS011;5574;48.786;10.120;2023-04-21T11:46:59;10.00;;;9.00;;
11042;SDS011;5574;48.786;10.120;2023-04-21T11:49:26;8.40;;;7.57;;
11042;SDS011;5574;48.786;10.120;2023-04-21T11:51:55;8.27;;;7.47;;
11042;SDS011;5574;48.786;10.120;2023-04-21T11:54:22;12.27;;;8.37;;
11042;SDS011;5574;48.786;10.120;2023-04-21T11:56:49;13.67;;;8.27;;
11042;SDS011;5574;48.786;10.120;2023-04-21T11:59:17;21.33;;;9.53;;
11042;SDS011;5574;48.786;10.120;2023-04-21T12:01:48;8.73;;;7.63;;
11042;SDS011;5574;48.786;10.120;2023-04-21T12:04:18;8.95;;;7.15;;
11042;SDS011;5574;48.786;10.120;2023-04-21T12:06:55;15.83;;;7.33;;
11042;SDS011;5574;48.786;10.120;2023-04-21T12:09:24;8.33;;;7.37;;
11042;SDS011;5574;48.786;10.120;2023-04-21T12:11:52;8.35;;;7.45;;
11042;SDS011;5574;48.786;10.120;2023-04-21T12:14:20;7.95;;;7.25;;
11042;SDS011;5574;48.786;10.120;2023-04-21T12:16:49;7.32;;;6.47;;
11042;SDS011;5574;48.786;10.120;2023-04-21T12:19:23;10.05;;;7.50;;
11042;SDS011;5574;48.786;10.120;2023-04-21T12:21:53;7.82;;;7.03;;
11042;SDS011;5574;48.786;10.120;2023-04-21T12:24:22;10.77;;;6.93;;
11042;SDS011;5574;48.786;10.120;2023-04-21T12:26:48;6.60;;;5.95;;
11042;SDS011;5574;48.786;10.120;2023-04-21T12:29:15;9.68;;;6.30;;
11042;SDS011;5574;48.786;10.120;2023-04-21T12:31:42;6.70;;;6.00;;
11042;SDS011;5574;48.786;10.120;2023-04-21T12:34:08;8.30;;;6.00;;
11042;SDS011;5574;48.786;10.120;2023-04-21T12:36:35;8.25;;;7.40;;
11042;SDS011;5574;48.786;10.120;2023-04-21T12:39:02;7.85;;;7.05;;
11042;SDS011;5574;48.786;10.120;2023-04-21T12:41:31;7.28;;;6.65;;
11042;SDS011;5574;48.786;10.120;2023-04-21T12:43:58;9.75;;;6.72;;
11042;SDS011;5574;48.786;10.120;2023-04-21T12:46:25;6.55;;;5.93;;
11042;SDS011;5574;48.786;10.120;2023-04-21T12:48:52;5.97;;;5.40;;
11042;SDS011;5574;48.786;10.120;2023-04-21T12:51:20;6.63;;;6.00;;
11042;SDS011;5574;48.786;10.120;2023-04-21T12:53:46;7.32;;;6.57;;
11042;SDS011;5574;48.786;10.120;2023-04-21T12:56:13;6.75;;;6.05;;
11042;SDS011;5574;48.786;10.120;2023-04-21T12:58:41;7.35;;;6.53;;
11042;SDS011;5574;48.786;10.120;2023-04-21T13:01:08;7.47;;;6.78;;
11042;SDS011;5574;48.786;10.120;2023-04-21T13:03:36;6.93;;;6.32;;
11042;SDS011;5574;48.786;10.120;2023-04-21T13:06:03;7.60;;;6.90;;
11042;SDS011;5574;48.786;10.120;2023-04-21T13:08:30;7.18;;;6.47;;
11042;SDS011;5574;48.786;10.120;2023-04-21T13:10:57;7.55;;;6.53;;
11042;SDS011;5574;48.786;10.120;2023-04-21T13:13:23;5.22;;;4.72;;
11042;SDS011;5574;48.786;10.120;2023-04-21T13:15:51;5.80;;;5.30;;
11042;SDS011;5574;48.786;10.120;2023-04-21T13:18:18;7.72;;;6.13;;
11042;SDS011;5574;48.786;10.120;2023-04-21T13:20:45;8.05;;;5.40;;
11042;SDS011;5574;48.786;10.120;2023-04-21T13:23:12;6.93;;;5.47;;
11042;SDS011;5574;48.786;10.120;2023-04-21T13:25:40;6.40;;;5.82;;
11042;SDS011;5574;48.786;10.120;2023-04-21T13:28:08;6.20;;;5.50;;
11042;SDS011;5574;48.786;10.120;2023-04-21T13:30:35;12.10;;;5.32;;
11042;SDS011;5574;48.786;10.120;2023-04-21T13:33:03;5.15;;;4.65;;
11042;SDS011;5574;48.786;10.120;2023-04-21T13:35:30;5.38;;;4.88;;
11042;SDS011;5574;48.786;10.120;2023-04-21T13:37:57;7.97;;;4.72;;
11042;SDS011;5574;48.786;10.120;2023-04-21T13:40:24;5.22;;;4.18;;
11042;SDS011;5574;48.786;10.120;2023-04-21T13:42:50;6.18;;;4.43;;
11042;SDS011;5574;48.786;10.120;2023-04-21T13:45:17;8.45;;;4.55;;
11042;SDS011;5574;48.786;10.120;2023-04-21T13:47:44;4.45;;;4.05;;
11042;SDS011;5574;48.786;10.120;2023-04-21T13:50:12;5.00;;;4.60;;
11042;SDS011;5574;48.786;10.120;2023-04-21T13:52:39;5.20;;;4.53;;
11042;SDS011;5574;48.786;10.120;2023-04-21T13:55:06;4.90;;;4.10;;
11042;SDS011;5574;48.786;10.120;2023-04-21T13:57:33;8.52;;;5.13;;
11042;SDS011;5574;48.786;10.120;2023-04-21T14:00:00;5.68;;;4.82;;
11042;SDS011;5574;48.786;10.120;2023-04-21T14:02:28;5.47;;;4.97;;
11042;SDS011;5574;48.786;10.120;2023-04-21T14:04:55;4.85;;;4.45;;
11042;SDS011;5574;48.786;10.120;2023-04-21T14:07:23;5.82;;;5.28;;
11042;SDS011;5574;48.786;10.120;2023-04-21T14:09:49;5.63;;;5.13;;
11042;SDS011;5574;48.786;10.120;2023-04-21T14:12:16;6.93;;;6.32;;
11042;SDS011;5574;48.786;10.120;2023-04-21T14:14:43;6.03;;;5.53;;
11042;SDS011;5574;48.786;10.120;2023-04-21T14:17:10;6.32;;;5.80;;
11042;SDS011;5574;48.786;10.120;2023-04-21T14:19:36;6.45;;;5.30;;
11042;SDS011;5574;48.786;10.120;2023-04-21T14:22:04;5.70;;;5.20;;
11042;SDS011;5574;48.786;10.120;2023-04-21T14:24:31;9.27;;;5.45;;
11042;SDS011;5574;48.786;10.120;2023-04-21T14:26:58;10.02;;;6.90;;
11042;SDS011;5574;48.786;10.120;2023-04-21T14:29:25;6.55;;;5.63;;
11042;SDS011;5574;48.786;10.120;2023-04-21T14:31:52;5.70;;;5.20;;
11042;SDS011;5574;48.786;10.120;2023-04-21T14:34:21;6.65;;;6.03;;
11042;SDS011;5574;48.786;10.120;2023-04-21T14:36:48;7.80;;;7.05;;
11042;SDS011;5574;48.786;10.120;2023-04-21T14:39:16;5.63;;;5.20;;
11042;SDS011;5574;48.786;10.120;2023-04-21T14:41:44;5.80;;;5.30;;
11042;SDS011;5574;48.786;10.120;2023-04-21T14:44:11;6.53;;;5.65;;
11042;SDS011;5574;48.786;10.120;2023-04-21T14:46:37;5.95;;;4.95;;